sensor_id;sensor_type;location;lat;lon;timestamp;P1;durP1;ratioP1;P2;durP2;ratioP2
15488;SDS011;7846;48.830;9.116;2023-02-11T00:00:34;29.97;;;16.93;;
15488;SDS011;7846;48.830;9.116;2023-02-11T00:02:59;26.40;;;17.93;;
15488;SDS011;7846;48.830;9.116;2023-02-11T00:05:24;25.50;;;16.30;;
15488;SDS011;7846;48.830;9.116;2023-02-11T00:07:51;26.93;;;16.77;;
15488;SDS011;7846;48.830;9.116;2023-02-11T00:10:16;29.50;;;16.90;;
15488;SDS011;7846;48.830;9.116;2023-02-11T00:12:43;25.87;;;16.50;;
15488;SDS011;7846;48.830;9.116;2023-02-11T00:15:08;25.57;;;16.77;;
15488;SDS011;7846;48.830;9.116;2023-02-11T00:17:34;25.97;;;17.17;;
15488;SDS011;7846;48.830;9.116;2023-02-11T00:20:00;26.33;;;16.60;;
15488;SDS011;7846;48.830;9.116;2023-02-11T00:22:26;26.40;;;16.57;;
15488;SDS011;7846;48.830;9.116;2023-02-11T00:24:51;24.63;;;17.03;;
15488;SDS011;7846;48.830;9.116;2023-02-11T00:27:17;27.17;;;16.60;;
15488;SDS011;7846;48.830;9.116;2023-02-11T00:29:42;27.20;;;16.37;;
15488;SDS011;7846;48.830;9.116;2023-02-11T00:32:08;26.07;;;16.53;;
15488;SDS011;7846;48.830;9.116;2023-02-11T00:34:34;26.73;;;17.17;;
15488;SDS011;7846;48.830;9.116;2023-02-11T00:37:00;24.63;;;15.67;;
15488;SDS011;7846;48.830;9.116;2023-02-11T00:39:26;26.27;;;16.70;;
15488;SDS011;7846;48.830;9.116;2023-02-11T00:41:51;25.07;;;16.37;;
15488;SDS011;7846;48.830;9.116;2023-02-11T00:44:16;27.07;;;16.47;;
15488;SDS011;7846;48.830;9.116;2023-02-11T00:46:42;26.33;;;16.27;;
15488;SDS011;7846;48.830;9.116;2023-02-11T00:49:08;26.03;;;16.23;;
15488;SDS011;7846;48.830;9.116;2023-02-11T00:51:34;25.20;;;15.90;;
15488;SDS011;7846;48.830;9.116;2023-02-11T00:53:59;24.73;;;16.43;;
15488;SDS011;7846;48.830;9.116;2023-02-11T00:56:24;24.07;;;15.37;;
15488;SDS011;7846;48.830;9.116;2023-02-11T00:58:50;23.93;;;16.10;;
15488;SDS011;7846;48.830;9.116;2023-02-11T01:01:16;24.80;;;16.00;;
15488;SDS011;7846;48.830;9.116;2023-02-11T01:03:41;26.70;;;16.23;;
15488;SDS011;7846;48.830;9.116;2023-02-11T01:06:08;25.17;;;16.83;;
15488;SDS011;7846;48.830;9.116;2023-02-11T01:08:34;23.80;;;15.80;;
15488;SDS011;7846;48.830;9.116;2023-02-11T01:11:00;25.17;;;16.57;;
15488;SDS011;7846;48.830;9.116;2023-02-11T01:13:28;25.50;;;17.80;;
15488;SDS011;7846;48.830;9.116;2023-02-11T01:15:55;25.73;;;16.80;;
15488;SDS011;7846;48.830;9.116;2023-02-11T01:18:20;27.77;;;17.23;;
15488;SDS011;7846;48.830;9.116;2023-02-11T01:20:46;26.83;;;17.00;;
15488;SDS011;7846;48.830;9.116;2023-02-11T01:23:12;28.70;;;18.13;;
15488;SDS011;7846;48.830;9.116;2023-02-11T01:25:38;27.03;;;16.87;;
15488;SDS011;7846;48.830;9.116;2023-02-11T01:28:05;26.07;;;17.00;;
15488;SDS011;7846;48.830;9.116;2023-02-11T01:30:31;24.53;;;15.97;;
15488;SDS011;7846;48.830;9.116;2023-02-11T01:32:57;25.70;;;15.20;;
15488;SDS011;7846;48.830;9.116;2023-02-11T01:35:23;26.47;;;16.73;;
15488;SDS011;7846;48.830;9.116;2023-02-11T01:37:48;24.50;;;16.43;;
15488;SDS011;7846;48.830;9.116;2023-02-11T01:40:15;22.80;;;15.90;;
15488;SDS011;7846;48.830;9.116;2023-02-11T01:42:41;24.77;;;15.37;;
15488;SDS011;7846;48.830;9.116;2023-02-11T01:48:07;24.57;;;15.17;;
15488;SDS011;7846;48.830;9.116;2023-02-11T01:50:36;23.90;;;15.63;;
15488;SDS011;7846;48.830;9.116;2023-02-11T01:53:04;25.97;;;15.47;;
15488;SDS011;7846;48.830;9.116;2023-02-11T01:55:48;23.90;;;15.73;;
15488;SDS011;7846;48.830;9.116;2023-02-11T01:58:33;24.75;;;15.75;;
15488;SDS011;7846;48.830;9.116;2023-02-11T02:01:02;24.43;;;15.80;;
15488;SDS011;7846;48.830;9.116;2023-02-11T02:03:28;24.07;;;16.23;;
15488;SDS011;7846;48.830;9.116;2023-02-11T02:05:57;25.43;;;15.10;;
15488;SDS011;7846;48.830;9.116;2023-02-11T02:08:38;28.30;;;16.17;;
15488;SDS011;7846;48.830;9.116;2023-02-11T02:11:07;25.27;;;15.10;;
15488;SDS011;7846;48.830;9.116;2023-02-11T02:13:33;25.93;;;16.10;;
15488;SDS011;7846;48.830;9.116;2023-02-11T02:16:01;22.93;;;15.50;;
15488;SDS011;7846;48.830;9.116;2023-02-11T02:18:41;24.93;;;16.30;;
15488;SDS011;7846;48.830;9.116;2023-02-11T02:21:43;24.17;;;16.30;;
15488;SDS011;7846;48.830;9.116;2023-02-11T02:24:45;22.20;;;14.97;;
15488;SDS011;7846;48.830;9.116;2023-02-11T02:27:25;26.67;;;16.13;;
15488;SDS011;7846;48.830;9.116;2023-02-11T02:36:17;23.70;;;15.23;;
15488;SDS011;7846;48.830;9.116;2023-02-11T02:41:33;25.15;;;16.52;;
15488;SDS011;7846;48.830;9.116;2023-02-11T02:44:00;23.53;;;16.10;;
15488;SDS011;7846;48.830;9.116;2023-02-11T02:46:27;25.07;;;15.80;;
15488;SDS011;7846;48.830;9.116;2023-02-11T02:48:55;22.13;;;15.20;;
15488;SDS011;7846;48.830;9.116;2023-02-11T02:57:19;25.50;;;15.70;;
15488;SDS011;7846;48.830;9.116;2023-02-11T03:00:10;22.50;;;14.87;;
15488;SDS011;7846;48.830;9.116;2023-02-11T03:02:51;21.57;;;14.63;;
15488;SDS011;7846;48.830;9.116;2023-02-11T03:05:52;20.53;;;14.17;;
15488;SDS011;7846;48.830;9.116;2023-02-11T03:11:13;23.30;;;14.70;;
15488;SDS011;7846;48.830;9.116;2023-02-11T03:13:42;21.50;;;14.73;;
15488;SDS011;7846;48.830;9.116;2023-02-11T03:16:12;23.50;;;13.77;;
15488;SDS011;7846;48.830;9.116;2023-02-11T03:18:41;22.00;;;14.00;;
15488;SDS011;7846;48.830;9.116;2023-02-11T03:21:12;23.03;;;14.37;;
15488;SDS011;7846;48.830;9.116;2023-02-11T03:23:43;25.07;;;14.23;;
15488;SDS011;7846;48.830;9.116;2023-02-11T03:26:29;21.27;;;14.00;;
15488;SDS011;7846;48.830;9.116;2023-02-11T03:29:01;21.47;;;13.77;;
15488;SDS011;7846;48.830;9.116;2023-02-11T03:34:26;21.90;;;14.13;;
15488;SDS011;7846;48.830;9.116;2023-02-11T03:37:01;23.57;;;14.43;;
15488;SDS011;7846;48.830;9.116;2023-02-11T03:39:41;22.70;;;14.37;;
15488;SDS011;7846;48.830;9.116;2023-02-11T03:42:11;21.60;;;14.47;;
15488;SDS011;7846;48.830;9.116;2023-02-11T03:44:40;22.27;;;14.60;;
15488;SDS011;7846;48.830;9.116;2023-02-11T03:47:10;22.47;;;14.83;;
15488;SDS011;7846;48.830;9.116;2023-02-11T03:49:39;21.20;;;14.37;;
15488;SDS011;7846;48.830;9.116;2023-02-11T03:52:06;21.20;;;14.57;;
15488;SDS011;7846;48.830;9.116;2023-02-11T03:54:35;22.83;;;14.70;;
15488;SDS011;7846;48.830;9.116;2023-02-11T03:57:02;22.30;;;15.27;;
15488;SDS011;7846;48.830;9.116;2023-02-11T03:59:28;22.63;;;14.37;;
15488;SDS011;7846;48.830;9.116;2023-02-11T04:01:54;21.73;;;14.23;;
15488;SDS011;7846;48.830;9.116;2023-02-11T04:04:20;20.33;;;13.47;;
15488;SDS011;7846;48.830;9.116;2023-02-11T04:06:45;21.50;;;14.93;;
15488;SDS011;7846;48.830;9.116;2023-02-11T04:09:12;23.20;;;14.53;;
15488;SDS011;7846;48.830;9.116;2023-02-11T04:11:38;24.00;;;14.93;;
15488;SDS011;7846;48.830;9.116;2023-02-11T04:14:04;20.60;;;14.10;;
15488;SDS011;7846;48.830;9.116;2023-02-11T04:16:30;20.17;;;14.30;;
15488;SDS011;7846;48.830;9.116;2023-02-11T04:18:55;21.33;;;14.73;;
15488;SDS011;7846;48.830;9.116;2023-02-11T04:21:21;21.37;;;14.37;;
15488;SDS011;7846;48.830;9.116;2023-02-11T04:23:46;20.90;;;14.23;;
15488;SDS011;7846;48.830;9.116;2023-02-11T04:26:13;19.17;;;13.97;;
15488;SDS011;7846;48.830;9.116;2023-02-11T04:28:39;21.03;;;14.50;;
15488;SDS011;7846;48.830;9.116;2023-02-11T04:31:04;20.93;;;14.33;;
15488;SDS011;7846;48.830;9.116;2023-02-11T04:33:30;23.17;;;14.77;;
15488;SDS011;7846;48.830;9.116;2023-02-11T04:35:56;20.47;;;14.03;;
15488;SDS011;7846;48.830;9.116;2023-02-11T04:38:21;22.80;;;14.73;;
15488;SDS011;7846;48.830;9.116;2023-02-11T04:40:48;25.27;;;15.33;;
15488;SDS011;7846;48.830;9.116;2023-02-11T04:43:13;19.43;;;14.27;;
15488;SDS011;7846;48.830;9.116;2023-02-11T04:45:39;21.97;;;15.10;;
15488;SDS011;7846;48.830;9.116;2023-02-11T04:48:04;20.93;;;14.57;;
15488;SDS011;7846;48.830;9.116;2023-02-11T04:50:30;20.83;;;14.90;;
15488;SDS011;7846;48.830;9.116;2023-02-11T04:52:55;21.53;;;14.73;;
15488;SDS011;7846;48.830;9.116;2023-02-11T04:55:20;20.43;;;14.27;;
15488;SDS011;7846;48.830;9.116;2023-02-11T04:57:46;22.50;;;14.77;;
15488;SDS011;7846;48.830;9.116;2023-02-11T05:00:11;22.80;;;14.13;;
15488;SDS011;7846;48.830;9.116;2023-02-11T05:02:37;20.03;;;14.10;;
15488;SDS011;7846;48.830;9.116;2023-02-11T05:05:03;20.67;;;14.77;;
15488;SDS011;7846;48.830;9.116;2023-02-11T05:07:29;25.33;;;14.63;;
15488;SDS011;7846;48.830;9.116;2023-02-11T05:09:55;18.60;;;13.90;;
15488;SDS011;7846;48.830;9.116;2023-02-11T05:12:20;22.47;;;14.33;;
15488;SDS011;7846;48.830;9.116;2023-02-11T05:14:46;21.97;;;15.17;;
15488;SDS011;7846;48.830;9.116;2023-02-11T05:17:11;19.70;;;14.23;;
15488;SDS011;7846;48.830;9.116;2023-02-11T05:19:36;19.87;;;14.80;;
15488;SDS011;7846;48.830;9.116;2023-02-11T05:22:02;23.50;;;15.70;;
15488;SDS011;7846;48.830;9.116;2023-02-11T05:24:27;22.17;;;15.50;;
15488;SDS011;7846;48.830;9.116;2023-02-11T05:26:52;19.07;;;14.47;;
15488;SDS011;7846;48.830;9.116;2023-02-11T05:29:19;23.17;;;14.90;;
15488;SDS011;7846;48.830;9.116;2023-02-11T05:31:44;23.33;;;15.70;;
15488;SDS011;7846;48.830;9.116;2023-02-11T05:34:11;23.27;;;15.93;;
15488;SDS011;7846;48.830;9.116;2023-02-11T05:36:36;23.67;;;15.10;;
15488;SDS011;7846;48.830;9.116;2023-02-11T05:39:02;23.07;;;15.33;;
15488;SDS011;7846;48.830;9.116;2023-02-11T05:41:27;21.27;;;14.87;;
15488;SDS011;7846;48.830;9.116;2023-02-11T05:43:54;24.37;;;14.90;;
15488;SDS011;7846;48.830;9.116;2023-02-11T05:46:19;21.47;;;15.27;;
15488;SDS011;7846;48.830;9.116;2023-02-11T05:48:45;24.47;;;16.03;;
15488;SDS011;7846;48.830;9.116;2023-02-11T05:51:12;20.17;;;14.73;;
15488;SDS011;7846;48.830;9.116;2023-02-11T05:53:37;22.00;;;16.10;;
15488;SDS011;7846;48.830;9.116;2023-02-11T05:56:03;24.07;;;16.00;;
15488;SDS011;7846;48.830;9.116;2023-02-11T05:58:28;24.30;;;16.30;;
15488;SDS011;7846;48.830;9.116;2023-02-11T06:00:53;22.70;;;15.70;;
15488;SDS011;7846;48.830;9.116;2023-02-11T06:03:19;21.37;;;15.33;;
15488;SDS011;7846;48.830;9.116;2023-02-11T06:05:45;22.90;;;15.83;;
15488;SDS011;7846;48.830;9.116;2023-02-11T06:08:10;24.17;;;16.50;;
15488;SDS011;7846;48.830;9.116;2023-02-11T06:10:37;24.10;;;15.80;;
15488;SDS011;7846;48.830;9.116;2023-02-11T06:13:02;22.57;;;16.30;;
15488;SDS011;7846;48.830;9.116;2023-02-11T06:15:28;23.00;;;16.40;;
15488;SDS011;7846;48.830;9.116;2023-02-11T06:17:53;22.27;;;15.57;;
15488;SDS011;7846;48.830;9.116;2023-02-11T06:20:19;22.83;;;15.30;;
15488;SDS011;7846;48.830;9.116;2023-02-11T06:22:44;24.43;;;15.73;;
15488;SDS011;7846;48.830;9.116;2023-02-11T06:25:10;22.43;;;15.87;;
15488;SDS011;7846;48.830;9.116;2023-02-11T06:27:37;20.33;;;14.90;;
15488;SDS011;7846;48.830;9.116;2023-02-11T06:30:03;21.83;;;15.67;;
15488;SDS011;7846;48.830;9.116;2023-02-11T06:32:30;21.83;;;15.73;;
15488;SDS011;7846;48.830;9.116;2023-02-11T06:34:56;23.07;;;15.57;;
15488;SDS011;7846;48.830;9.116;2023-02-11T06:37:22;21.23;;;15.37;;
15488;SDS011;7846;48.830;9.116;2023-02-11T06:39:47;26.20;;;15.27;;
15488;SDS011;7846;48.830;9.116;2023-02-11T06:42:13;20.87;;;16.00;;
15488;SDS011;7846;48.830;9.116;2023-02-11T06:44:39;22.13;;;15.33;;
15488;SDS011;7846;48.830;9.116;2023-02-11T06:47:06;21.07;;;15.23;;
15488;SDS011;7846;48.830;9.116;2023-02-11T06:49:31;24.03;;;15.97;;
15488;SDS011;7846;48.830;9.116;2023-02-11T06:51:57;22.57;;;15.97;;
15488;SDS011;7846;48.830;9.116;2023-02-11T06:54:22;24.43;;;15.67;;
15488;SDS011;7846;48.830;9.116;2023-02-11T06:56:47;22.10;;;15.73;;
15488;SDS011;7846;48.830;9.116;2023-02-11T06:59:16;22.70;;;15.70;;
15488;SDS011;7846;48.830;9.116;2023-02-11T07:01:44;22.70;;;15.87;;
15488;SDS011;7846;48.830;9.116;2023-02-11T07:04:10;21.70;;;15.90;;
15488;SDS011;7846;48.830;9.116;2023-02-11T07:06:35;21.83;;;16.23;;
15488;SDS011;7846;48.830;9.116;2023-02-11T07:09:02;21.57;;;15.83;;
15488;SDS011;7846;48.830;9.116;2023-02-11T07:11:28;23.07;;;15.60;;
15488;SDS011;7846;48.830;9.116;2023-02-11T07:13:55;22.70;;;16.03;;
15488;SDS011;7846;48.830;9.116;2023-02-11T07:16:24;21.57;;;15.93;;
15488;SDS011;7846;48.830;9.116;2023-02-11T07:18:49;22.47;;;16.37;;
15488;SDS011;7846;48.830;9.116;2023-02-11T07:21:16;24.87;;;17.73;;
15488;SDS011;7846;48.830;9.116;2023-02-11T07:23:43;24.00;;;17.83;;
15488;SDS011;7846;48.830;9.116;2023-02-11T07:26:10;23.07;;;16.77;;
15488;SDS011;7846;48.830;9.116;2023-02-11T07:28:37;23.73;;;17.43;;
15488;SDS011;7846;48.830;9.116;2023-02-11T07:31:07;23.60;;;17.00;;
15488;SDS011;7846;48.830;9.116;2023-02-11T07:33:34;21.83;;;16.07;;
15488;SDS011;7846;48.830;9.116;2023-02-11T07:36:00;24.77;;;16.67;;
15488;SDS011;7846;48.830;9.116;2023-02-11T07:38:26;26.13;;;16.63;;
15488;SDS011;7846;48.830;9.116;2023-02-11T07:40:51;20.50;;;16.07;;
15488;SDS011;7846;48.830;9.116;2023-02-11T07:43:16;23.80;;;15.80;;
15488;SDS011;7846;48.830;9.116;2023-02-11T07:45:42;24.87;;;15.87;;
15488;SDS011;7846;48.830;9.116;2023-02-11T07:48:07;20.60;;;15.37;;
15488;SDS011;7846;48.830;9.116;2023-02-11T07:50:33;22.90;;;16.43;;
15488;SDS011;7846;48.830;9.116;2023-02-11T07:53:00;18.53;;;15.03;;
15488;SDS011;7846;48.830;9.116;2023-02-11T07:55:26;25.23;;;17.53;;
15488;SDS011;7846;48.830;9.116;2023-02-11T07:57:51;24.17;;;17.17;;
15488;SDS011;7846;48.830;9.116;2023-02-11T08:00:18;22.37;;;16.07;;
15488;SDS011;7846;48.830;9.116;2023-02-11T08:02:43;22.63;;;16.17;;
15488;SDS011;7846;48.830;9.116;2023-02-11T08:05:08;23.40;;;16.73;;
15488;SDS011;7846;48.830;9.116;2023-02-11T08:07:34;22.70;;;16.13;;
15488;SDS011;7846;48.830;9.116;2023-02-11T08:10:00;21.33;;;15.87;;
15488;SDS011;7846;48.830;9.116;2023-02-11T08:12:25;21.83;;;16.80;;
15488;SDS011;7846;48.830;9.116;2023-02-11T08:14:51;22.73;;;16.57;;
15488;SDS011;7846;48.830;9.116;2023-02-11T08:17:16;20.57;;;14.43;;
15488;SDS011;7846;48.830;9.116;2023-02-11T08:19:42;20.30;;;14.80;;
15488;SDS011;7846;48.830;9.116;2023-02-11T08:22:07;19.93;;;15.03;;
15488;SDS011;7846;48.830;9.116;2023-02-11T08:24:33;23.17;;;15.00;;
15488;SDS011;7846;48.830;9.116;2023-02-11T08:26:59;19.87;;;14.33;;
15488;SDS011;7846;48.830;9.116;2023-02-11T08:29:25;18.87;;;14.10;;
15488;SDS011;7846;48.830;9.116;2023-02-11T08:31:50;18.97;;;14.43;;
15488;SDS011;7846;48.830;9.116;2023-02-11T08:34:17;19.87;;;14.70;;
15488;SDS011;7846;48.830;9.116;2023-02-11T08:36:43;18.83;;;14.73;;
15488;SDS011;7846;48.830;9.116;2023-02-11T08:39:16;19.43;;;14.07;;
15488;SDS011;7846;48.830;9.116;2023-02-11T08:41:44;17.40;;;13.77;;
15488;SDS011;7846;48.830;9.116;2023-02-11T08:44:14;18.63;;;13.97;;
15488;SDS011;7846;48.830;9.116;2023-02-11T08:46:40;18.27;;;13.77;;
15488;SDS011;7846;48.830;9.116;2023-02-11T08:49:08;25.13;;;16.87;;
15488;SDS011;7846;48.830;9.116;2023-02-11T08:51:35;24.07;;;16.70;;
15488;SDS011;7846;48.830;9.116;2023-02-11T08:54:00;24.87;;;16.90;;
15488;SDS011;7846;48.830;9.116;2023-02-11T09:55:56;9.27;;;8.27;;
15488;SDS011;7846;48.830;9.116;2023-02-11T09:59:05;12.17;;;9.63;;
15488;SDS011;7846;48.830;9.116;2023-02-11T10:05:27;10.77;;;7.97;;
15488;SDS011;7846;48.830;9.116;2023-02-11T10:08:58;8.53;;;6.90;;
15488;SDS011;7846;48.830;9.116;2023-02-11T10:22:53;6.97;;;6.27;;
15488;SDS011;7846;48.830;9.116;2023-02-11T10:26:07;7.23;;;5.97;;
15488;SDS011;7846;48.830;9.116;2023-02-11T10:32:42;7.27;;;5.03;;
15488;SDS011;7846;48.830;9.116;2023-02-11T10:36:00;6.50;;;5.20;;
15488;SDS011;7846;48.830;9.116;2023-02-11T10:42:21;6.33;;;4.30;;
15488;SDS011;7846;48.830;9.116;2023-02-11T10:45:35;4.13;;;3.70;;
15488;SDS011;7846;48.830;9.116;2023-02-11T10:48:47;5.53;;;4.03;;
15488;SDS011;7846;48.830;9.116;2023-02-11T10:52:16;5.10;;;4.60;;
15488;SDS011;7846;48.830;9.116;2023-02-11T10:55:25;4.90;;;4.40;;
15488;SDS011;7846;48.830;9.116;2023-02-11T11:01:47;6.53;;;5.00;;
15488;SDS011;7846;48.830;9.116;2023-02-11T11:04:56;4.97;;;4.20;;
15488;SDS011;7846;48.830;9.116;2023-02-11T11:08:05;9.07;;;4.83;;
15488;SDS011;7846;48.830;9.116;2023-02-11T11:11:17;6.43;;;4.63;;
15488;SDS011;7846;48.830;9.116;2023-02-11T11:14:25;6.77;;;4.60;;
15488;SDS011;7846;48.830;9.116;2023-02-11T11:17:33;7.40;;;4.97;;
15488;SDS011;7846;48.830;9.116;2023-02-11T11:20:42;6.93;;;4.33;;
15488;SDS011;7846;48.830;9.116;2023-02-11T11:23:59;5.37;;;4.53;;
15488;SDS011;7846;48.830;9.116;2023-02-11T11:27:14;6.30;;;5.03;;
15488;SDS011;7846;48.830;9.116;2023-02-11T11:30:25;7.60;;;5.80;;
15488;SDS011;7846;48.830;9.116;2023-02-11T11:33:36;7.00;;;5.90;;
15488;SDS011;7846;48.830;9.116;2023-02-11T11:36:47;7.73;;;5.90;;
15488;SDS011;7846;48.830;9.116;2023-02-11T11:46:21;6.50;;;5.33;;
15488;SDS011;7846;48.830;9.116;2023-02-11T11:53:03;6.10;;;5.50;;
15488;SDS011;7846;48.830;9.116;2023-02-11T11:56:11;7.23;;;6.00;;
15488;SDS011;7846;48.830;9.116;2023-02-11T11:59:20;6.90;;;5.40;;
15488;SDS011;7846;48.830;9.116;2023-02-11T12:02:44;7.87;;;6.00;;
15488;SDS011;7846;48.830;9.116;2023-02-11T12:06:26;8.10;;;5.43;;
15488;SDS011;7846;48.830;9.116;2023-02-11T12:10:10;7.50;;;5.60;;
15488;SDS011;7846;48.830;9.116;2023-02-11T12:16:55;7.73;;;5.60;;
15488;SDS011;7846;48.830;9.116;2023-02-11T12:20:11;6.47;;;5.73;;
15488;SDS011;7846;48.830;9.116;2023-02-11T12:26:05;11.27;;;9.00;;
15488;SDS011;7846;48.830;9.116;2023-02-11T12:28:43;12.63;;;11.30;;
15488;SDS011;7846;48.830;9.116;2023-02-11T12:31:18;7.20;;;5.60;;
15488;SDS011;7846;48.830;9.116;2023-02-11T12:37:08;6.57;;;4.77;;
15488;SDS011;7846;48.830;9.116;2023-02-11T12:42:36;8.60;;;6.40;;
15488;SDS011;7846;48.830;9.116;2023-02-11T12:49:08;8.73;;;5.63;;
15488;SDS011;7846;48.830;9.116;2023-02-11T12:54:17;9.27;;;6.27;;
15488;SDS011;7846;48.830;9.116;2023-02-11T12:56:53;11.20;;;8.57;;
15488;SDS011;7846;48.830;9.116;2023-02-11T12:59:31;15.67;;;8.97;;
15488;SDS011;7846;48.830;9.116;2023-02-11T13:02:03;18.20;;;10.97;;
15488;SDS011;7846;48.830;9.116;2023-02-11T13:04:39;13.07;;;10.03;;
15488;SDS011;7846;48.830;9.116;2023-02-11T13:07:14;13.17;;;10.73;;
15488;SDS011;7846;48.830;9.116;2023-02-11T13:09:58;14.67;;;10.43;;
15488;SDS011;7846;48.830;9.116;2023-02-11T13:12:31;12.57;;;11.20;;
15488;SDS011;7846;48.830;9.116;2023-02-11T13:15:18;15.43;;;11.10;;
15488;SDS011;7846;48.830;9.116;2023-02-11T13:18:45;12.77;;;10.80;;
15488;SDS011;7846;48.830;9.116;2023-02-11T13:31:51;15.23;;;11.87;;
15488;SDS011;7846;48.830;9.116;2023-02-11T13:34:25;15.60;;;11.50;;
15488;SDS011;7846;48.830;9.116;2023-02-11T13:39:55;15.87;;;11.93;;
15488;SDS011;7846;48.830;9.116;2023-02-11T13:42:43;13.07;;;11.03;;
15488;SDS011;7846;48.830;9.116;2023-02-11T13:45:20;12.77;;;11.47;;
15488;SDS011;7846;48.830;9.116;2023-02-11T13:47:57;14.57;;;10.87;;
15488;SDS011;7846;48.830;9.116;2023-02-11T13:50:25;14.77;;;12.40;;
15488;SDS011;7846;48.830;9.116;2023-02-11T13:52:56;13.03;;;11.70;;
15488;SDS011;7846;48.830;9.116;2023-02-11T13:56:05;12.60;;;11.07;;
15488;SDS011;7846;48.830;9.116;2023-02-11T13:58:35;13.53;;;12.10;;
15488;SDS011;7846;48.830;9.116;2023-02-11T14:01:10;13.43;;;11.53;;
15488;SDS011;7846;48.830;9.116;2023-02-11T14:03:36;13.93;;;11.73;;
15488;SDS011;7846;48.830;9.116;2023-02-11T14:06:25;12.37;;;11.13;;
15488;SDS011;7846;48.830;9.116;2023-02-11T14:16:32;12.07;;;10.17;;
15488;SDS011;7846;48.830;9.116;2023-02-11T14:18:59;11.93;;;10.53;;
15488;SDS011;7846;48.830;9.116;2023-02-11T14:23:52;12.20;;;10.73;;
15488;SDS011;7846;48.830;9.116;2023-02-11T14:28:43;11.87;;;10.67;;
15488;SDS011;7846;48.830;9.116;2023-02-11T14:31:28;13.33;;;10.53;;
15488;SDS011;7846;48.830;9.116;2023-02-11T14:34:11;11.57;;;10.33;;
15488;SDS011;7846;48.830;9.116;2023-02-11T14:39:54;12.17;;;10.97;;
15488;SDS011;7846;48.830;9.116;2023-02-11T14:42:24;12.83;;;11.27;;
15488;SDS011;7846;48.830;9.116;2023-02-11T14:44:52;12.67;;;11.13;;
15488;SDS011;7846;48.830;9.116;2023-02-11T14:47:22;13.10;;;11.17;;
15488;SDS011;7846;48.830;9.116;2023-02-11T14:49:53;13.37;;;11.27;;
15488;SDS011;7846;48.830;9.116;2023-02-11T14:52:33;12.77;;;11.43;;
15488;SDS011;7846;48.830;9.116;2023-02-11T15:00:36;11.10;;;9.97;;
15488;SDS011;7846;48.830;9.116;2023-02-11T15:03:23;12.50;;;11.20;;
15488;SDS011;7846;48.830;9.116;2023-02-11T15:05:58;12.03;;;10.83;;
15488;SDS011;7846;48.830;9.116;2023-02-11T15:08:27;11.93;;;10.03;;
15488;SDS011;7846;48.830;9.116;2023-02-11T15:10:54;12.43;;;11.10;;
15488;SDS011;7846;48.830;9.116;2023-02-11T15:13:20;15.27;;;10.80;;
15488;SDS011;7846;48.830;9.116;2023-02-11T15:16:05;13.13;;;11.50;;
15488;SDS011;7846;48.830;9.116;2023-02-11T15:18:34;12.03;;;10.60;;
15488;SDS011;7846;48.830;9.116;2023-02-11T15:21:03;11.33;;;10.13;;
15488;SDS011;7846;48.830;9.116;2023-02-11T15:23:29;12.37;;;10.97;;
15488;SDS011;7846;48.830;9.116;2023-02-11T15:25:55;11.70;;;10.50;;
15488;SDS011;7846;48.830;9.116;2023-02-11T15:28:25;12.67;;;11.37;;
15488;SDS011;7846;48.830;9.116;2023-02-11T15:30:56;13.33;;;11.20;;
15488;SDS011;7846;48.830;9.116;2023-02-11T15:33:24;11.63;;;10.43;;
15488;SDS011;7846;48.830;9.116;2023-02-11T15:35:50;12.90;;;11.50;;
15488;SDS011;7846;48.830;9.116;2023-02-11T15:38:16;11.90;;;10.17;;
15488;SDS011;7846;48.830;9.116;2023-02-11T15:40:50;13.27;;;11.97;;
15488;SDS011;7846;48.830;9.116;2023-02-11T15:43:24;14.30;;;12.13;;
15488;SDS011;7846;48.830;9.116;2023-02-11T15:46:05;14.60;;;12.30;;
15488;SDS011;7846;48.830;9.116;2023-02-11T15:48:34;13.73;;;11.83;;
15488;SDS011;7846;48.830;9.116;2023-02-11T15:51:06;14.07;;;12.17;;
15488;SDS011;7846;48.830;9.116;2023-02-11T15:53:41;13.73;;;11.93;;
15488;SDS011;7846;48.830;9.116;2023-02-11T15:58:45;16.07;;;12.43;;
15488;SDS011;7846;48.830;9.116;2023-02-11T16:01:13;13.53;;;11.23;;
15488;SDS011;7846;48.830;9.116;2023-02-11T16:03:39;14.27;;;12.27;;
15488;SDS011;7846;48.830;9.116;2023-02-11T16:06:17;15.77;;;12.60;;
15488;SDS011;7846;48.830;9.116;2023-02-11T16:09:04;14.20;;;12.30;;
15488;SDS011;7846;48.830;9.116;2023-02-11T16:19:51;15.50;;;12.53;;
15488;SDS011;7846;48.830;9.116;2023-02-11T16:22:28;14.67;;;12.47;;
15488;SDS011;7846;48.830;9.116;2023-02-11T16:24:56;15.57;;;12.63;;
15488;SDS011;7846;48.830;9.116;2023-02-11T16:27:27;14.73;;;12.60;;
15488;SDS011;7846;48.830;9.116;2023-02-11T16:29:58;14.93;;;12.60;;
15488;SDS011;7846;48.830;9.116;2023-02-11T16:32:27;16.60;;;12.83;;
15488;SDS011;7846;48.830;9.116;2023-02-11T16:34:54;16.30;;;13.40;;
15488;SDS011;7846;48.830;9.116;2023-02-11T16:37:22;16.50;;;13.20;;
15488;SDS011;7846;48.830;9.116;2023-02-11T16:39:48;17.10;;;13.17;;
15488;SDS011;7846;48.830;9.116;2023-02-11T16:42:17;15.03;;;13.23;;
15488;SDS011;7846;48.830;9.116;2023-02-11T16:44:42;17.00;;;13.73;;
15488;SDS011;7846;48.830;9.116;2023-02-11T16:47:12;17.00;;;13.80;;
15488;SDS011;7846;48.830;9.116;2023-02-11T16:49:48;16.93;;;14.57;;
15488;SDS011;7846;48.830;9.116;2023-02-11T16:52:14;18.33;;;15.00;;
15488;SDS011;7846;48.830;9.116;2023-02-11T16:54:40;20.93;;;15.33;;
15488;SDS011;7846;48.830;9.116;2023-02-11T16:57:13;17.83;;;15.40;;
15488;SDS011;7846;48.830;9.116;2023-02-11T16:59:41;19.50;;;14.83;;
15488;SDS011;7846;48.830;9.116;2023-02-11T17:02:26;20.23;;;16.43;;
15488;SDS011;7846;48.830;9.116;2023-02-11T17:04:55;21.03;;;15.33;;
15488;SDS011;7846;48.830;9.116;2023-02-11T17:07:23;17.63;;;15.20;;
15488;SDS011;7846;48.830;9.116;2023-02-11T17:09:49;22.67;;;17.70;;
15488;SDS011;7846;48.830;9.116;2023-02-11T17:12:16;23.03;;;16.47;;
15488;SDS011;7846;48.830;9.116;2023-02-11T17:14:41;20.93;;;16.23;;
15488;SDS011;7846;48.830;9.116;2023-02-11T17:17:07;18.50;;;15.40;;
15488;SDS011;7846;48.830;9.116;2023-02-11T17:19:33;19.23;;;15.33;;
15488;SDS011;7846;48.830;9.116;2023-02-11T17:22:02;18.83;;;15.93;;
15488;SDS011;7846;48.830;9.116;2023-02-11T17:24:27;19.23;;;16.10;;
15488;SDS011;7846;48.830;9.116;2023-02-11T17:26:53;22.10;;;16.73;;
15488;SDS011;7846;48.830;9.116;2023-02-11T17:29:20;17.77;;;15.57;;
15488;SDS011;7846;48.830;9.116;2023-02-11T17:31:47;18.97;;;14.40;;
15488;SDS011;7846;48.830;9.116;2023-02-11T17:34:12;18.07;;;14.47;;
15488;SDS011;7846;48.830;9.116;2023-02-11T17:36:38;19.90;;;14.70;;
15488;SDS011;7846;48.830;9.116;2023-02-11T17:39:05;17.10;;;14.93;;
15488;SDS011;7846;48.830;9.116;2023-02-11T17:41:32;18.67;;;14.70;;
15488;SDS011;7846;48.830;9.116;2023-02-11T17:44:01;18.10;;;15.27;;
15488;SDS011;7846;48.830;9.116;2023-02-11T17:46:26;19.00;;;15.23;;
15488;SDS011;7846;48.830;9.116;2023-02-11T17:48:52;17.83;;;15.07;;
15488;SDS011;7846;48.830;9.116;2023-02-11T17:51:29;18.20;;;14.87;;
15488;SDS011;7846;48.830;9.116;2023-02-11T17:53:57;17.43;;;14.63;;
15488;SDS011;7846;48.830;9.116;2023-02-11T17:56:24;18.03;;;15.50;;
15488;SDS011;7846;48.830;9.116;2023-02-11T17:58:49;18.80;;;15.17;;
15488;SDS011;7846;48.830;9.116;2023-02-11T18:01:18;22.83;;;15.27;;
15488;SDS011;7846;48.830;9.116;2023-02-11T18:03:43;19.80;;;17.00;;
15488;SDS011;7846;48.830;9.116;2023-02-11T18:06:10;18.03;;;15.90;;
15488;SDS011;7846;48.830;9.116;2023-02-11T18:08:36;18.63;;;15.23;;
15488;SDS011;7846;48.830;9.116;2023-02-11T18:11:02;18.20;;;14.87;;
15488;SDS011;7846;48.830;9.116;2023-02-11T18:13:28;20.03;;;16.20;;
15488;SDS011;7846;48.830;9.116;2023-02-11T18:15:53;21.37;;;16.47;;